Time;durP1;ratioP1;P1;durP2;ratioP2;P2;SDS_P1;SDS_P2;PMS_P1;PMS_P2;Temp;Humidity;BMP_temperature;BMP_pressure;BME280_temperature;BME280_humidity;BME280_pressure;Samples;Min_cycle;Max_cycle;Signal;HPM_P1;HPM_P2
2021/09/26 00:02:12;;;;;;;13.57;11.87;;;18.20;99.90;;;;;;5041211;28;20989;-79
2021/09/26 00:04:41;;;;;;;12.30;11.00;;;18.20;99.90;;;;;;5039667;28;20453;-80
2021/09/26 00:07:08;;;;;;;12.13;10.83;;;18.10;99.90;;;;;;5051862;28;20477;-79
2021/09/26 00:09:35;;;;;;;14.63;11.97;;;18.10;99.90;;;;;;5057781;28;20475;-79
2021/09/26 00:12:02;;;;;;;13.40;12.00;;;18.00;99.90;;;;;;5045907;28;20452;-79
2021/09/26 00:14:30;;;;;;;17.90;11.70;;;18.00;99.90;;;;;;5044346;28;20517;-79
2021/09/26 00:16:58;;;;;;;17.90;11.57;;;18.00;99.90;;;;;;5040685;28;20484;-80
2021/09/26 00:19:25;;;;;;;12.67;11.37;;;18.00;99.90;;;;;;5039072;28;20464;-78
2021/09/26 00:21:54;;;;;;;11.87;10.87;;;17.90;99.90;;;;;;5038875;28;20538;-79
2021/09/26 00:24:21;;;;;;;11.63;10.57;;;18.00;99.90;;;;;;5038553;28;20475;-81
2021/09/26 00:26:48;;;;;;;13.83;12.40;;;18.00;99.90;;;;;;5048613;28;20438;-78
2021/09/26 00:29:15;;;;;;;12.40;11.10;;;18.00;99.90;;;;;;5059230;28;20465;-78
2021/09/26 00:31:42;;;;;;;14.17;11.73;;;18.00;99.90;;;;;;5058267;28;20490;-79
2021/09/26 00:34:09;;;;;;;13.40;11.40;;;18.00;99.90;;;;;;5052585;28;20467;-79
2021/09/26 00:36:36;;;;;;;12.53;10.93;;;18.00;99.90;;;;;;5046929;28;20438;-79
2021/09/26 00:39:04;;;;;;;13.93;12.13;;;18.00;99.90;;;;;;5053638;28;20454;-80
2021/09/26 00:41:32;;;;;;;12.60;11.30;;;18.00;99.30;;;;;;5039821;28;20465;-79
2021/09/26 00:43:59;;;;;;;13.17;11.77;;;17.90;99.90;;;;;;5039910;28;20565;-79
2021/09/26 00:46:26;;;;;;;14.00;11.20;;;17.80;99.90;;;;;;5039639;28;20475;-80
2021/09/26 00:48:52;;;;;;;11.80;10.57;;;17.70;99.90;;;;;;5039564;28;20437;-80
2021/09/26 00:51:19;;;;;;;12.73;10.97;;;17.70;99.90;;;;;;5040647;28;20556;-79
2021/09/26 00:53:48;;;;;;;15.03;11.43;;;17.60;99.90;;;;;;5039225;28;20472;-79
2021/09/26 00:56:16;;;;;;;11.07;9.90;;;17.60;99.90;;;;;;5039724;28;20465;-78
2021/09/26 00:58:43;;;;;;;12.70;11.37;;;17.50;99.90;;;;;;5040057;28;20485;-79
2021/09/26 01:01:10;;;;;;;11.73;10.53;;;17.50;99.90;;;;;;5044545;28;20889;-79
2021/09/26 01:03:37;;;;;;;14.27;12.77;;;17.40;99.90;;;;;;5053685;28;20452;-79
2021/09/26 01:06:17;;;;;;;14.33;10.57;;;17.40;99.90;;;;;;5052665;28;20421;-80
2021/09/26 01:09:01;;;;;;;14.20;10.77;;;17.40;99.90;;;;;;5038642;28;20479;-79
2021/09/26 01:11:40;;;;;;;13.40;10.33;;;17.40;99.90;;;;;;5039042;28;20533;-79
2021/09/26 01:14:15;;;;;;;12.90;11.70;;;17.30;99.90;;;;;;5038811;28;20847;-79
2021/09/26 01:16:58;;;;;;;12.57;11.27;;;17.30;99.90;;;;;;5039004;28;20458;-79
2021/09/26 01:20:03;;;;;;;13.27;11.60;;;17.20;99.90;;;;;;5041990;28;20508;-78
2021/09/26 01:22:48;;;;;;;12.53;11.30;;;17.20;99.90;;;;;;5052730;28;20450;-78
2021/09/26 01:25:26;;;;;;;15.10;11.47;;;17.10;99.90;;;;;;5052538;28;20457;-79
2021/09/26 01:28:20;;;;;;;12.23;11.03;;;17.10;99.90;;;;;;5041958;28;20452;-79
2021/09/26 01:30:52;;;;;;;13.07;11.10;;;17.00;99.90;;;;;;5042838;28;20491;-79
2021/09/26 01:33:22;;;;;;;11.93;10.70;;;17.00;99.90;;;;;;5040778;28;20473;-79
2021/09/26 01:36:05;;;;;;;11.47;10.10;;;17.00;99.90;;;;;;5040518;28;20460;-80
2021/09/26 01:38:53;;;;;;;12.20;11.10;;;16.90;99.90;;;;;;5040436;28;21000;-81
2021/09/26 01:41:29;;;;;;;12.13;10.97;;;16.80;99.90;;;;;;5045726;28;20458;-79
2021/09/26 01:43:58;;;;;;;12.53;11.37;;;16.80;99.90;;;;;;5052248;28;20477;-78
2021/09/26 01:46:31;;;;;;;12.23;10.93;;;16.80;99.90;;;;;;5053988;28;20464;-79
2021/09/26 01:49:02;;;;;;;13.50;11.40;;;16.80;99.90;;;;;;5048265;28;20421;-78
2021/09/26 01:51:35;;;;;;;12.83;11.53;;;16.70;99.90;;;;;;5047690;28;20474;-78
2021/09/26 01:54:03;;;;;;;12.37;10.97;;;16.70;99.90;;;;;;5044019;28;20450;-78
2021/09/26 01:56:31;;;;;;;13.33;11.47;;;16.60;99.90;;;;;;5041088;28;20466;-78
2021/09/26 01:58:59;;;;;;;13.53;12.13;;;16.60;99.90;;;;;;5044389;28;20433;-78
2021/09/26 02:01:27;;;;;;;12.77;11.43;;;16.50;99.90;;;;;;5044832;28;20565;-78
2021/09/26 02:03:56;;;;;;;11.43;10.33;;;16.50;99.90;;;;;;5038571;28;20474;-78
2021/09/26 02:06:24;;;;;;;11.50;10.40;;;16.40;99.90;;;;;;5040036;28;20450;-78
2021/09/26 02:08:52;;;;;;;12.80;11.10;;;16.40;99.90;;;;;;5040557;28;20477;-78
2021/09/26 02:11:20;;;;;;;12.63;11.10;;;16.40;99.90;;;;;;5040215;28;20579;-79
2021/09/26 02:13:49;;;;;;;11.87;10.57;;;16.30;99.90;;;;;;5036687;28;20550;-79
2021/09/26 02:16:16;;;;;;;14.30;10.10;;;16.30;99.90;;;;;;5038040;28;20507;-79
2021/09/26 02:18:47;;;;;;;12.37;11.07;;;16.30;99.90;;;;;;5037336;28;20604;-79
2021/09/26 02:21:16;;;;;;;12.27;11.07;;;16.20;99.90;;;;;;5038074;28;20457;-80
2021/09/26 02:23:43;;;;;;;11.83;10.50;;;16.20;99.90;;;;;;5039071;28;20445;-79
2021/09/26 02:26:10;;;;;;;11.77;10.57;;;16.30;99.90;;;;;;5038756;28;20441;-79
2021/09/26 02:28:37;;;;;;;13.13;10.47;;;16.20;99.90;;;;;;5037330;28;20461;-79
2021/09/26 02:31:08;;;;;;;11.83;10.60;;;16.20;99.90;;;;;;5043544;28;20504;-79
2021/09/26 02:33:35;;;;;;;10.97;9.97;;;16.20;99.90;;;;;;5050966;28;20473;-79
2021/09/26 02:36:07;;;;;;;12.57;11.23;;;16.20;99.90;;;;;;5045151;28;20461;-79
2021/09/26 02:38:36;;;;;;;10.50;9.50;;;16.20;99.90;;;;;;5038231;28;20477;-79
2021/09/26 02:41:08;;;;;;;11.13;9.93;;;16.20;99.90;;;;;;5039828;28;20452;-78
2021/09/26 02:43:42;;;;;;;10.67;9.57;;;16.20;99.90;;;;;;5043032;28;20469;-78
2021/09/26 02:46:17;;;;;;;11.20;9.13;;;16.20;99.90;;;;;;5046198;28;20468;-78
2021/09/26 02:48:45;;;;;;;11.10;10.00;;;16.20;99.90;;;;;;5053986;28;20461;-78
2021/09/26 02:51:13;;;;;;;11.70;10.70;;;16.10;99.90;;;;;;5049626;28;20832;-79
2021/09/26 02:53:42;;;;;;;11.57;10.30;;;16.10;99.90;;;;;;5040030;28;20487;-80
2021/09/26 02:56:09;;;;;;;12.17;11.07;;;16.00;99.90;;;;;;5037784;28;20829;-77
2021/09/26 02:58:39;;;;;;;11.63;10.50;;;16.00;99.90;;;;;;5038372;28;20428;-79
2021/09/26 03:01:06;;;;;;;11.20;9.83;;;16.00;99.90;;;;;;5038641;28;20461;-80
2021/09/26 03:03:33;;;;;;;10.77;9.67;;;16.00;99.90;;;;;;5039318;28;20473;-80
2021/09/26 03:06:01;;;;;;;10.80;9.73;;;15.90;99.90;;;;;;5042985;28;20472;-77
2021/09/26 03:08:29;;;;;;;11.33;10.23;;;15.90;99.90;;;;;;5056836;28;20430;-77
2021/09/26 03:10:58;;;;;;;11.73;9.93;;;15.90;99.90;;;;;;5056684;28;20412;-78
2021/09/26 03:13:26;;;;;;;11.90;10.60;;;15.90;99.90;;;;;;5056618;28;20466;-78
2021/09/26 03:15:53;;;;;;;12.30;10.83;;;15.90;99.90;;;;;;5056495;28;20440;-79
2021/09/26 03:18:20;;;;;;;12.20;10.97;;;15.90;99.90;;;;;;5056685;28;20553;-78
2021/09/26 03:20:47;;;;;;;11.67;10.47;;;15.80;99.90;;;;;;5055944;28;20517;-78
2021/09/26 03:23:15;;;;;;;12.37;11.07;;;15.80;99.90;;;;;;5055399;28;20457;-78
2021/09/26 03:25:44;;;;;;;12.07;10.80;;;15.80;99.90;;;;;;5055820;28;20469;-77
2021/09/26 03:28:10;;;;;;;10.53;9.53;;;15.80;99.90;;;;;;5054633;28;20449;-78
2021/09/26 03:30:37;;;;;;;11.17;10.00;;;15.80;99.90;;;;;;5052069;28;20448;-79
2021/09/26 03:33:04;;;;;;;10.23;9.33;;;15.80;99.90;;;;;;5057785;28;20481;-79
2021/09/26 03:35:31;;;;;;;12.00;10.87;;;15.70;99.90;;;;;;5051521;28;20454;-79
2021/09/26 03:37:58;;;;;;;11.00;9.90;;;15.70;99.90;;;;;;5048205;28;20446;-79
2021/09/26 03:40:25;;;;;;;11.57;10.40;;;15.60;99.90;;;;;;5049855;28;20451;-79
2021/09/26 03:42:53;;;;;;;13.13;9.77;;;15.70;99.90;;;;;;5046226;28;20491;-79
2021/09/26 03:45:20;;;;;;;11.17;9.93;;;15.70;99.90;;;;;;5041177;28;20444;-79
2021/09/26 03:47:48;;;;;;;11.00;9.90;;;15.60;99.90;;;;;;5056192;28;20477;-78
2021/09/26 03:50:15;;;;;;;10.87;9.73;;;15.60;99.90;;;;;;5051734;28;20474;-79
2021/09/26 03:52:42;;;;;;;12.20;9.67;;;15.60;99.90;;;;;;5039677;28;20505;-79
2021/09/26 03:55:13;;;;;;;11.80;10.60;;;15.60;99.90;;;;;;5041899;28;20469;-79
2021/09/26 03:57:41;;;;;;;10.40;9.40;;;15.60;99.90;;;;;;5045325;28;20881;-78
2021/09/26 04:00:12;;;;;;;11.10;9.97;;;15.60;99.90;;;;;;5045613;28;20458;-80
2021/09/26 04:02:39;;;;;;;11.03;9.60;;;15.50;99.90;;;;;;5042598;28;20440;-80
2021/09/26 04:05:07;;;;;;;11.70;9.50;;;15.50;99.90;;;;;;5045395;28;20454;-80
2021/09/26 04:07:34;;;;;;;9.07;8.17;;;15.50;99.90;;;;;;5046077;28;20541;-79
2021/09/26 04:10:01;;;;;;;11.13;9.00;;;15.50;99.90;;;;;;5058673;28;20452;-79
2021/09/26 04:12:28;;;;;;;9.50;8.60;;;15.50;99.90;;;;;;5058181;28;20493;-79
2021/09/26 04:14:55;;;;;;;10.40;9.20;;;15.40;99.90;;;;;;5048106;28;20811;-79
2021/09/26 04:17:23;;;;;;;9.70;8.90;;;15.40;99.90;;;;;;5039980;28;20214;-79
2021/09/26 04:19:50;;;;;;;10.20;9.10;;;15.40;99.90;;;;;;5039966;28;20441;-79
2021/09/26 04:22:17;;;;;;;9.60;8.70;;;15.40;99.90;;;;;;5040720;28;20452;-81
2021/09/26 04:24:44;;;;;;;9.70;8.80;;;15.40;99.90;;;;;;5041155;28;20455;-78
2021/09/26 04:27:11;;;;;;;11.90;9.73;;;15.40;99.90;;;;;;5041050;28;20509;-79
2021/09/26 04:29:38;;;;;;;11.77;10.57;;;15.30;99.90;;;;;;5040759;28;20435;-80
2021/09/26 04:32:05;;;;;;;10.97;9.87;;;15.30;99.90;;;;;;5040544;28;20238;-79
2021/09/26 04:34:34;;;;;;;13.27;10.80;;;15.20;99.90;;;;;;5040440;28;20595;-80
2021/09/26 04:37:02;;;;;;;11.63;10.43;;;15.20;99.90;;;;;;5041298;28;20794;-79
2021/09/26 04:39:29;;;;;;;12.18;10.30;;;15.10;99.90;;;;;;5040228;28;20464;-79
2021/09/26 04:41:56;;;;;;;12.00;10.80;;;15.10;99.90;;;;;;5040310;28;20256;-79
2021/09/26 04:44:23;;;;;;;10.43;9.38;;;15.00;99.90;;;;;;5036841;28;20294;-77
2021/09/26 04:46:50;;;;;;;10.87;9.77;;;15.00;99.90;;;;;;5034489;28;20244;-76
2021/09/26 04:49:17;;;;;;;11.30;10.20;;;15.00;99.90;;;;;;5034468;28;20468;-76
2021/09/26 04:51:45;;;;;;;10.57;9.47;;;15.00;99.90;;;;;;5042031;28;20272;-78
2021/09/26 04:54:12;;;;;;;10.27;9.20;;;15.00;99.90;;;;;;5041941;28;20507;-78
2021/09/26 04:56:39;;;;;;;11.00;9.85;;;15.00;99.90;;;;;;5040454;28;20239;-77
2021/09/26 04:59:06;;;;;;;10.35;9.25;;;15.00;99.90;;;;;;5039918;28;20732;-79
2021/09/26 05:01:33;;;;;;;11.45;10.20;;;14.90;99.90;;;;;;5038353;28;20328;-76
2021/09/26 05:04:00;;;;;;;12.25;9.90;;;14.90;99.90;;;;;;5035569;28;20311;-76
2021/09/26 05:06:27;;;;;;;11.15;10.02;;;14.90;99.90;;;;;;5034861;28;20216;-76
2021/09/26 05:08:55;;;;;;;9.97;8.90;;;14.90;99.90;;;;;;5034569;28;20209;-77
2021/09/26 05:11:22;;;;;;;12.50;9.95;;;14.80;99.90;;;;;;5034851;28;21009;-76
2021/09/26 05:13:49;;;;;;;11.77;10.05;;;14.80;99.90;;;;;;5034239;28;20230;-76
2021/09/26 05:16:16;;;;;;;10.60;9.50;;;14.80;99.90;;;;;;5034489;28;20239;-77
2021/09/26 05:18:43;;;;;;;10.13;9.18;;;14.70;99.90;;;;;;5034320;28;20452;-76
2021/09/26 05:21:10;;;;;;;11.07;9.98;;;14.70;99.90;;;;;;5034209;28;20736;-76
2021/09/26 05:23:38;;;;;;;13.20;9.20;;;14.80;99.90;;;;;;5035049;28;20225;-76
2021/09/26 05:26:07;;;;;;;11.35;10.15;;;14.80;99.90;;;;;;5034688;28;20204;-77
2021/09/26 05:28:34;;;;;;;11.82;10.63;;;14.70;99.90;;;;;;5035043;28;20244;-76
2021/09/26 05:31:01;;;;;;;11.00;9.63;;;14.70;99.90;;;;;;5034840;28;20248;-79
2021/09/26 05:33:29;;;;;;;12.07;10.55;;;14.70;99.90;;;;;;5034630;28;20325;-77
2021/09/26 05:35:56;;;;;;;10.97;9.87;;;14.70;99.90;;;;;;5039893;28;20235;-78
2021/09/26 05:38:23;;;;;;;11.30;10.10;;;14.70;99.90;;;;;;5040937;28;20518;-78
2021/09/26 05:40:50;;;;;;;9.82;8.93;;;14.80;99.90;;;;;;5039280;28;20484;-76
2021/09/26 05:43:18;;;;;;;12.20;10.90;;;14.80;99.90;;;;;;5047425;28;20221;-77
2021/09/26 05:45:48;;;;;;;10.73;9.38;;;14.80;99.90;;;;;;5045102;28;20220;-77
2021/09/26 05:48:14;;;;;;;11.10;9.13;;;14.90;99.90;;;;;;5036286;28;20266;-77
2021/09/26 05:50:42;;;;;;;14.40;9.32;;;14.90;99.90;;;;;;5036541;28;20204;-80
2021/09/26 05:53:09;;;;;;;10.45;9.40;;;14.80;99.90;;;;;;5034438;28;20275;-76
2021/09/26 05:55:36;;;;;;;9.52;8.65;;;14.80;99.90;;;;;;5034890;28;20262;-77
2021/09/26 05:58:03;;;;;;;10.18;9.18;;;14.80;99.90;;;;;;5034789;28;20241;-77
2021/09/26 06:00:31;;;;;;;9.77;8.82;;;14.90;99.90;;;;;;5034357;28;20264;-80
2021/09/26 06:02:58;;;;;;;9.55;8.55;;;15.00;99.90;;;;;;5034093;28;20314;-79
2021/09/26 06:05:25;;;;;;;10.32;9.40;;;15.10;99.90;;;;;;5042358;28;20204;-80
2021/09/26 06:07:52;;;;;;;10.97;9.87;;;15.20;99.90;;;;;;5049709;28;20213;-80
2021/09/26 06:10:19;;;;;;;9.13;8.33;;;15.30;99.90;;;;;;5046907;28;20469;-80
2021/09/26 06:12:47;;;;;;;10.53;9.23;;;15.50;99.90;;;;;;5048576;28;20489;-80
2021/09/26 06:15:14;;;;;;;10.57;8.40;;;15.50;99.90;;;;;;5043371;28;20511;-80
2021/09/26 06:17:43;;;;;;;8.63;7.80;;;15.40;99.90;;;;;;5044634;28;20857;-79
2021/09/26 06:20:11;;;;;;;9.40;8.50;;;15.60;99.90;;;;;;5046061;28;20461;-79
2021/09/26 06:22:38;;;;;;;9.23;8.23;;;15.70;99.90;;;;;;5041922;28;20454;-79
2021/09/26 06:25:06;;;;;;;9.10;8.30;;;15.80;99.90;;;;;;5046432;28;20453;-79
2021/09/26 06:27:33;;;;;;;8.77;7.97;;;15.90;99.90;;;;;;5054537;28;20453;-78
2021/09/26 06:30:01;;;;;;;10.60;8.40;;;16.00;99.90;;;;;;5054638;28;20449;-78
2021/09/26 06:32:31;;;;;;;9.37;8.30;;;16.10;99.90;;;;;;5048715;28;20477;-79
2021/09/26 06:34:59;;;;;;;8.43;7.50;;;16.00;99.90;;;;;;5050752;28;20461;-79
2021/09/26 06:37:26;;;;;;;8.13;7.37;;;16.20;99.90;;;;;;5053999;28;20466;-78
2021/09/26 06:39:53;;;;;;;8.83;8.03;;;16.40;99.90;;;;;;5054085;28;20457;-79
2021/09/26 06:42:20;;;;;;;9.23;7.27;;;16.60;99.90;;;;;;5047677;28;20480;-79
2021/09/26 06:44:47;;;;;;;8.90;8.00;;;16.80;99.90;;;;;;5040115;28;20520;-79
2021/09/26 06:47:14;;;;;;;11.70;7.33;;;17.00;99.60;;;;;;5041148;28;20438;-79
2021/09/26 06:49:41;;;;;;;8.00;7.20;;;16.90;97.10;;;;;;5041425;28;20516;-78
2021/09/26 06:52:12;;;;;;;11.27;7.87;;;17.00;96.90;;;;;;5041042;28;20956;-79
2021/09/26 06:54:39;;;;;;;8.30;7.23;;;17.30;96.30;;;;;;5038055;28;20456;-80
2021/09/26 06:57:06;;;;;;;8.40;7.60;;;17.30;93.90;;;;;;5038490;28;20454;-79
2021/09/26 06:59:33;;;;;;;9.60;7.13;;;17.30;94.00;;;;;;5040665;28;20485;-80
2021/09/26 07:02:00;;;;;;;7.70;6.97;;;17.30;93.60;;;;;;5039092;28;20485;-80
2021/09/26 07:04:27;;;;;;;7.70;6.93;;;17.50;93.10;;;;;;5037719;28;20452;-78
2021/09/26 07:06:54;;;;;;;9.17;6.80;;;17.80;92.60;;;;;;5052676;28;20997;-79
2021/09/26 07:09:22;;;;;;;8.83;6.47;;;18.00;90.90;;;;;;5060777;28;20439;-78
2021/09/26 07:11:49;;;;;;;7.33;6.30;;;18.10;88.90;;;;;;5060493;28;20438;-79
2021/09/26 07:14:16;;;;;;;6.73;5.93;;;18.30;89.90;;;;;;5054258;28;20453;-80
2021/09/26 07:16:43;;;;;;;10.93;6.70;;;18.60;87.40;;;;;;5050064;28;20867;-79
2021/09/26 07:19:12;;;;;;;6.83;6.23;;;18.80;84.30;;;;;;5044148;28;20474;-79
2021/09/26 07:21:39;;;;;;;7.37;6.60;;;18.80;83.60;;;;;;5043592;28;20460;-79
2021/09/26 07:24:06;;;;;;;6.30;5.77;;;18.90;81.70;;;;;;5048615;28;20447;-79
2021/09/26 07:26:34;;;;;;;8.20;5.87;;;19.10;81.70;;;;;;5057884;28;20426;-79
2021/09/26 07:29:01;;;;;;;7.43;6.73;;;19.10;80.50;;;;;;5043917;28;20455;-78
2021/09/26 07:31:28;;;;;;;6.57;5.87;;;19.10;80.50;;;;;;5046594;28;20961;-79
2021/09/26 07:33:55;;;;;;;6.83;6.23;;;19.20;80.60;;;;;;5049412;28;20545;-79
2021/09/26 07:36:22;;;;;;;7.07;6.30;;;19.10;80.80;;;;;;5051198;28;20499;-80
2021/09/26 07:38:49;;;;;;;8.20;7.07;;;19.20;80.80;;;;;;5054169;28;20465;-77
2021/09/26 07:41:16;;;;;;;7.77;6.97;;;19.20;80.40;;;;;;5045414;28;20519;-79
2021/09/26 07:43:44;;;;;;;8.03;6.53;;;19.10;81.30;;;;;;5043906;28;20468;-79
2021/09/26 07:46:11;;;;;;;7.87;6.00;;;19.10;82.00;;;;;;5043806;28;20470;-78
2021/09/26 07:48:38;;;;;;;8.97;6.70;;;19.10;83.30;;;;;;5052520;28;20484;-78
2021/09/26 07:51:05;;;;;;;7.67;6.93;;;19.20;84.70;;;;;;5057341;28;20431;-80
2021/09/26 07:53:32;;;;;;;11.57;6.63;;;19.30;84.80;;;;;;5056157;28;20527;-81
2021/09/26 07:55:59;;;;;;;6.63;5.90;;;19.30;84.10;;;;;;5044197;28;20515;-80
2021/09/26 07:58:27;;;;;;;8.23;6.70;;;19.40;84.10;;;;;;5047934;28;20511;-79
2021/09/26 08:00:55;;;;;;;8.63;5.80;;;19.60;83.70;;;;;;5042833;28;20460;-80
2021/09/26 08:03:23;;;;;;;10.53;6.90;;;19.60;82.90;;;;;;5043635;28;20500;-78
2021/09/26 08:05:50;;;;;;;7.93;6.50;;;19.80;82.00;;;;;;5043457;28;20661;-80
2021/09/26 08:08:16;;;;;;;8.40;7.57;;;20.00;80.70;;;;;;5043351;28;21025;-79
2021/09/26 08:10:43;;;;;;;7.13;6.27;;;20.00;79.00;;;;;;5050120;28;20448;-80
2021/09/26 08:13:10;;;;;;;7.33;6.40;;;20.10;79.20;;;;;;5043500;28;20464;-80
2021/09/26 08:15:37;;;;;;;8.37;6.97;;;20.30;78.60;;;;;;5043428;28;20454;-79
2021/09/26 08:18:05;;;;;;;6.63;6.03;;;20.40;77.10;;;;;;5045755;28;20457;-79
2021/09/26 08:20:32;;;;;;;7.20;6.23;;;20.60;76.70;;;;;;5052518;28;20429;-79
2021/09/26 08:22:59;;;;;;;7.50;6.80;;;20.60;75.80;;;;;;5055031;28;20433;-81
2021/09/26 08:25:26;;;;;;;9.97;6.90;;;20.70;75.70;;;;;;5055874;28;20495;-80
2021/09/26 08:27:53;;;;;;;6.20;5.63;;;20.70;74.40;;;;;;5055708;28;20439;-79
2021/09/26 08:30:20;;;;;;;7.43;6.60;;;20.60;74.90;;;;;;5055850;28;20453;-81
2021/09/26 08:32:48;;;;;;;9.97;6.37;;;20.50;75.80;;;;;;5055050;28;20474;-81
2021/09/26 08:35:17;;;;;;;7.40;6.60;;;20.40;75.70;;;;;;5054642;28;20444;-81
2021/09/26 08:37:44;;;;;;;7.47;6.77;;;20.40;77.10;;;;;;5055081;28;20437;-79
2021/09/26 08:40:13;;;;;;;7.27;6.43;;;20.50;77.50;;;;;;5057622;28;20454;-78
2021/09/26 08:42:41;;;;;;;10.80;7.70;;;20.40;78.50;;;;;;5050025;28;20433;-76
2021/09/26 08:45:10;;;;;;;11.33;6.90;;;20.30;80.40;;;;;;5035006;28;20880;-78
2021/09/26 08:47:39;;;;;;;8.00;7.20;;;20.40;79.80;;;;;;5034858;28;20432;-78
2021/09/26 08:50:08;;;;;;;9.07;7.73;;;20.40;78.70;;;;;;5035578;28;20481;-77
2021/09/26 08:52:36;;;;;;;13.47;7.37;;;20.40;79.30;;;;;;5054111;28;20449;-79
2021/09/26 08:55:04;;;;;;;12.27;7.90;;;20.40;78.80;;;;;;5054395;28;20445;-77
2021/09/26 08:57:31;;;;;;;8.00;7.20;;;20.30;79.10;;;;;;5057968;28;20425;-83
2021/09/26 08:59:58;;;;;;;8.40;7.50;;;20.40;79.50;;;;;;5054513;28;20453;-81
2021/09/26 09:02:25;;;;;;;8.53;6.93;;;20.40;79.50;;;;;;5056523;28;20434;-80
2021/09/26 09:04:52;;;;;;;10.30;7.67;;;20.50;80.20;;;;;;5043466;28;21190;-77
2021/09/26 09:07:20;;;;;;;9.10;7.47;;;20.40;79.30;;;;;;5037037;28;20461;-78
2021/09/26 09:09:54;;;;;;;8.53;7.70;;;20.30;80.70;;;;;;5035986;28;20436;-77
2021/09/26 09:12:26;;;;;;;8.30;7.50;;;20.40;80.10;;;;;;5035251;28;20460;-77
2021/09/26 09:14:56;;;;;;;7.93;7.13;;;20.50;79.60;;;;;;5035528;28;20471;-78
2021/09/26 09:17:31;;;;;;;9.00;8.10;;;20.40;81.70;;;;;;5036284;28;20470;-77
2021/09/26 09:20:22;;;;;;;10.83;7.60;;;20.30;81.70;;;;;;5047627;28;20447;-79
2021/09/26 09:22:51;;;;;;;10.47;7.20;;;20.10;83.40;;;;;;5048552;28;20452;-77
2021/09/26 09:25:40;;;;;;;11.70;8.40;;;20.00;85.00;;;;;;5034987;28;20557;-78
2021/09/26 09:28:09;;;;;;;11.60;7.60;;;20.00;86.20;;;;;;5034191;28;21032;-77
2021/09/26 09:30:38;;;;;;;12.20;8.67;;;20.10;86.70;;;;;;5034132;28;20943;-79
2021/09/26 09:33:05;;;;;;;9.57;8.20;;;20.20;85.60;;;;;;5035013;28;20525;-77
2021/09/26 09:35:37;;;;;;;9.63;7.80;;;20.30;85.70;;;;;;5034280;28;20492;-79
2021/09/26 09:38:04;;;;;;;12.60;8.50;;;20.20;85.60;;;;;;5034820;28;20468;-77
2021/09/26 09:40:31;;;;;;;10.40;7.80;;;20.30;85.70;;;;;;5033499;28;20462;-78
2021/09/26 09:43:00;;;;;;;10.63;8.10;;;20.60;86.00;;;;;;5033641;28;20454;-77
2021/09/26 09:45:29;;;;;;;12.13;7.93;;;20.80;82.50;;;;;;5034626;28;20479;-78
2021/09/26 09:48:08;;;;;;;13.20;8.17;;;21.00;81.20;;;;;;5034200;28;20428;-77
2021/09/26 09:51:00;;;;;;;14.73;8.30;;;21.10;78.20;;;;;;5035093;28;20450;-78
2021/09/26 09:53:33;;;;;;;8.73;7.87;;;21.10;77.70;;;;;;5037582;28;20501;-77
2021/09/26 09:56:04;;;;;;;9.80;7.80;;;21.10;79.60;;;;;;5036877;28;20540;-78
2021/09/26 09:58:36;;;;;;;12.30;8.07;;;21.20;79.00;;;;;;5038492;28;20458;-78
2021/09/26 10:01:06;;;;;;;12.33;8.07;;;21.40;78.00;;;;;;5050559;28;20426;-79
2021/09/26 10:03:39;;;;;;;7.80;7.10;;;21.30;76.60;;;;;;5052793;28;20433;-78
2021/09/26 10:06:29;;;;;;;8.07;7.27;;;21.40;78.00;;;;;;5050704;28;20489;-76
2021/09/26 10:08:58;;;;;;;8.83;7.93;;;21.60;75.50;;;;;;5047716;28;20488;-80
2021/09/26 10:11:27;;;;;;;12.30;7.70;;;21.40;75.60;;;;;;5045724;28;20445;-82
2021/09/26 10:13:55;;;;;;;9.90;8.03;;;21.50;75.20;;;;;;5039798;28;20472;-81
2021/09/26 10:16:23;;;;;;;12.37;8.30;;;21.50;75.80;;;;;;5040813;28;20485;-77
2021/09/26 10:18:50;;;;;;;15.57;8.20;;;21.40;77.00;;;;;;5037160;28;20453;-79
2021/09/26 10:21:17;;;;;;;10.00;9.00;;;21.40;77.10;;;;;;5038845;28;20458;-78
2021/09/26 10:23:52;;;;;;;8.83;7.60;;;21.50;74.60;;;;;;5035417;28;21061;-78
2021/09/26 10:26:24;;;;;;;9.67;8.67;;;21.60;75.30;;;;;;5043690;28;20435;-81
2021/09/26 10:28:53;;;;;;;10.87;8.53;;;21.80;74.70;;;;;;5043570;28;20492;-82
2021/09/26 10:31:23;;;;;;;10.10;8.50;;;22.00;72.70;;;;;;5039312;28;20842;-79
2021/09/26 10:33:56;;;;;;;9.67;8.87;;;22.20;70.60;;;;;;5038543;28;21100;-76
2021/09/26 10:36:24;;;;;;;13.13;8.57;;;22.30;69.90;;;;;;5035300;28;20521;-76
2021/09/26 10:38:53;;;;;;;8.60;7.80;;;22.40;70.00;;;;;;5033783;28;20482;-78
2021/09/26 10:41:21;;;;;;;9.70;8.47;;;22.60;70.10;;;;;;5033663;28;20907;-78
2021/09/26 10:43:48;;;;;;;8.87;8.07;;;23.10;66.90;;;;;;5034873;28;20496;-78
2021/09/26 10:46:23;;;;;;;9.40;8.40;;;23.60;64.90;;;;;;5034897;28;20458;-77
2021/09/26 10:49:12;;;;;;;9.13;8.20;;;23.40;63.70;;;;;;5034899;28;20495;-77
2021/09/26 10:51:56;;;;;;;8.80;7.90;;;23.60;62.70;;;;;;5035181;28;20472;-78
2021/09/26 10:54:32;;;;;;;11.57;8.50;;;23.70;62.00;;;;;;5041604;28;20460;-79
2021/09/26 10:57:36;;;;;;;10.87;8.27;;;23.70;61.20;;;;;;5041540;28;20492;-79
2021/09/26 11:00:06;;;;;;;8.80;7.97;;;23.50;61.80;;;;;;5038512;28;20456;-79
2021/09/26 11:02:48;;;;;;;10.33;8.10;;;23.50;61.80;;;;;;5046813;28;20420;-79
2021/09/26 11:05:36;;;;;;;7.87;7.17;;;23.50;61.80;;;;;;5048598;28;20511;-79
2021/09/26 11:08:07;;;;;;;11.33;8.20;;;23.40;61.70;;;;;;5042776;28;20529;-79
2021/09/26 11:10:48;;;;;;;9.70;8.73;;;23.20;61.50;;;;;;5042092;28;20465;-78
2021/09/26 11:13:20;;;;;;;10.93;8.23;;;23.30;61.70;;;;;;5040079;28;20456;-79
2021/09/26 11:16:05;;;;;;;7.83;7.13;;;23.40;61.70;;;;;;5043595;28;20430;-79
2021/09/26 11:18:55;;;;;;;12.90;8.83;;;23.50;61.80;;;;;;5041017;28;20492;-79
2021/09/26 11:21:49;;;;;;;9.10;8.20;;;23.50;61.80;;;;;;5043133;28;20523;-79
2021/09/26 11:24:28;;;;;;;8.03;7.23;;;23.50;61.10;;;;;;5039236;28;20508;-79
2021/09/26 11:27:05;;;;;;;7.80;7.10;;;23.50;60.70;;;;;;5040715;28;20454;-78
2021/09/26 11:30:11;;;;;;;8.60;7.77;;;23.70;60.00;;;;;;5041401;28;20459;-80
2021/09/26 11:32:38;;;;;;;9.73;8.73;;;23.90;59.20;;;;;;5039266;28;20439;-78
2021/09/26 11:35:09;;;;;;;9.43;8.40;;;23.90;58.90;;;;;;5048846;28;20906;-79
2021/09/26 11:37:53;;;;;;;8.57;7.77;;;23.80;58.90;;;;;;5050205;28;20903;-78
2021/09/26 11:40:23;;;;;;;9.73;8.80;;;23.80;58.90;;;;;;5030944;28;20450;-78
2021/09/26 11:42:52;;;;;;;12.13;7.90;;;23.90;57.90;;;;;;5033521;28;20436;-79
2021/09/26 11:45:31;;;;;;;8.90;8.00;;;24.10;58.10;;;;;;5033889;28;20449;-79
2021/09/26 11:48:00;;;;;;;10.83;8.30;;;24.00;57.90;;;;;;5033683;28;20942;-79
2021/09/26 11:50:30;;;;;;;9.33;8.43;;;23.90;58.70;;;;;;5033297;28;20458;-79
2021/09/26 11:52:57;;;;;;;9.13;8.17;;;23.80;59.00;;;;;;5035681;28;20448;-79
2021/09/26 11:55:24;;;;;;;8.93;6.90;;;23.90;58.70;;;;;;5036611;28;20496;-78
2021/09/26 11:57:56;;;;;;;9.83;8.83;;;24.00;59.50;;;;;;5036119;28;20450;-78
2021/09/26 12:00:25;;;;;;;9.90;9.00;;;24.30;59.10;;;;;;5038559;28;20770;-81
2021/09/26 12:03:13;;;;;;;8.63;7.73;;;24.50;57.70;;;;;;5044319;28;20673;-80
2021/09/26 12:05:42;;;;;;;8.70;7.80;;;24.50;58.00;;;;;;5039171;28;20474;-78
2021/09/26 12:08:09;;;;;;;11.47;9.23;;;24.60;57.70;;;;;;5035803;28;20560;-77
2021/09/26 12:10:36;;;;;;;8.13;7.33;;;24.90;57.00;;;;;;5036657;28;20486;-78
2021/09/26 12:13:14;;;;;;;9.40;8.20;;;24.80;56.90;;;;;;5042966;28;20496;-78
2021/09/26 12:15:42;;;;;;;9.30;8.30;;;24.50;57.60;;;;;;5045139;28;20483;-78
2021/09/26 12:18:17;;;;;;;9.53;8.60;;;24.40;57.90;;;;;;5048999;28;20474;-80
2021/09/26 12:20:45;;;;;;;11.67;9.03;;;24.50;58.00;;;;;;5055601;28;20431;-79
2021/09/26 12:23:19;;;;;;;10.80;8.50;;;24.20;58.00;;;;;;5056738;28;20473;-80
2021/09/26 12:25:48;;;;;;;10.90;9.80;;;24.00;59.40;;;;;;5055808;28;20438;-78
2021/09/26 12:28:45;;;;;;;11.73;9.43;;;23.90;60.20;;;;;;5048873;28;20449;-77
2021/09/26 12:31:12;;;;;;;14.37;12.90;;;23.50;61.80;;;;;;4989286;28;20456;-77
2021/09/26 12:33:43;;;;;;;10.00;9.00;;;23.20;62.90;;;;;;5036002;28;20461;-78
2021/09/26 12:36:16;;;;;;;10.67;9.57;;;23.00;64.70;;;;;;5051776;28;20458;-77
2021/09/26 12:38:51;;;;;;;10.63;9.53;;;22.70;66.00;;;;;;5051716;28;20453;-78
2021/09/26 12:41:27;;;;;;;13.33;12.00;;;22.40;70.00;;;;;;5053504;28;20412;-81
2021/09/26 12:43:58;;;;;;;12.63;11.33;;;22.20;78.80;;;;;;5055727;28;20448;-81
2021/09/26 12:46:28;;;;;;;14.67;12.70;;;21.70;86.90;;;;;;5044977;28;20493;-80
2021/09/26 12:49:00;;;;;;;16.33;13.20;;;21.20;90.90;;;;;;5042253;28;20504;-80
2021/09/26 12:51:30;;;;;;;14.53;13.07;;;20.80;92.00;;;;;;5044347;28;20434;-80
2021/09/26 12:54:00;;;;;;;16.37;13.70;;;20.70;93.90;;;;;;5058020;28;20481;-77